createdAt,value
2023-05-05T00:00:09.926Z,5.60
2023-05-05T00:03:23.045Z,6.80
2023-05-05T00:06:00.509Z,6.00
2023-05-05T00:08:38.058Z,6.50
2023-05-05T00:11:15.241Z,7.10
2023-05-05T00:13:52.219Z,7.90
2023-05-05T00:16:25.759Z,6.90
2023-05-05T00:18:59.676Z,6.00
2023-05-05T00:21:33.900Z,6.00
2023-05-05T00:24:12.797Z,7.30
2023-05-05T00:26:50.268Z,5.40
2023-05-05T00:29:28.150Z,5.40
2023-05-05T00:32:07.859Z,6.30
2023-05-05T00:34:45.127Z,8.00
2023-05-05T00:37:17.622Z,7.00
2023-05-05T00:39:55.270Z,7.20
2023-05-05T00:42:46.136Z,7.70
2023-05-05T00:45:23.557Z,6.40
2023-05-05T00:48:05.172Z,6.70
2023-05-05T00:50:45.341Z,7.60
2023-05-05T00:53:23.029Z,7.60
2023-05-05T00:56:00.349Z,7.20
2023-05-05T00:58:38.266Z,7.40
2023-05-05T01:01:16.872Z,7.00
2023-05-05T01:03:54.130Z,7.00
2023-05-05T01:07:40.700Z,8.30
2023-05-05T01:10:26.423Z,7.60
2023-05-05T01:13:24.925Z,6.10
2023-05-05T01:16:26.954Z,5.30
2023-05-05T01:19:46.158Z,5.00
2023-05-05T01:22:25.107Z,6.20
2023-05-05T01:25:40.104Z,6.10
2023-05-05T01:28:55.751Z,6.60
2023-05-05T01:31:55.561Z,7.00
2023-05-05T01:34:46.883Z,5.80
2023-05-05T01:37:42.604Z,5.70
2023-05-05T01:40:23.445Z,6.20
2023-05-05T01:43:01.490Z,6.50
2023-05-05T01:45:41.793Z,6.00
2023-05-05T01:48:19.552Z,6.40
2023-05-05T01:50:56.378Z,4.10
2023-05-05T01:53:36.247Z,6.10
2023-05-05T01:56:15.673Z,6.70
2023-05-05T01:58:54.631Z,6.70
2023-05-05T02:01:33.363Z,6.70
2023-05-05T02:04:13.951Z,5.10
2023-05-05T02:06:53.510Z,6.70
2023-05-05T02:09:38.003Z,6.90
2023-05-05T02:12:16.809Z,5.20
2023-05-05T02:14:55.342Z,4.20
2023-05-05T02:17:33.260Z,6.30
2023-05-05T02:20:14.369Z,4.40
2023-05-05T02:25:34.336Z,5.70
2023-05-05T02:28:23.184Z,6.90
2023-05-05T02:31:01.276Z,5.50
2023-05-05T02:33:39.727Z,5.90
2023-05-05T02:36:21.611Z,6.30
2023-05-05T02:39:06.778Z,7.20
2023-05-05T02:41:44.650Z,6.40
2023-05-05T02:44:20.220Z,6.00
2023-05-05T02:46:59.166Z,6.70
2023-05-05T02:49:38.785Z,6.40
2023-05-05T02:52:16.393Z,5.40
2023-05-05T02:54:58.956Z,6.30
2023-05-05T02:58:12.123Z,6.30
2023-05-05T03:01:09.741Z,5.60
2023-05-05T03:04:17.373Z,6.80
2023-05-05T03:07:05.968Z,5.80
2023-05-05T03:10:22.870Z,5.10
2023-05-05T03:13:08.364Z,6.40
2023-05-05T03:15:53.340Z,7.40
2023-05-05T03:18:32.080Z,6.30
2023-05-05T03:21:11.278Z,6.40
2023-05-05T03:23:43.808Z,6.60
2023-05-05T03:26:19.598Z,5.90
2023-05-05T03:28:57.700Z,7.20
2023-05-05T03:31:35.046Z,5.30
2023-05-05T03:34:12.943Z,3.50
2023-05-05T03:36:50.069Z,7.80
2023-05-05T03:39:28.026Z,6.30
2023-05-05T03:42:06.989Z,6.60
2023-05-05T03:44:43.935Z,7.00
2023-05-05T03:47:21.454Z,4.90
2023-05-05T03:49:58.841Z,6.80
2023-05-05T03:52:36.121Z,6.50
2023-05-05T03:55:14.288Z,5.10
2023-05-05T03:57:50.101Z,5.80
2023-05-05T04:00:22.176Z,5.70
2023-05-05T04:03:00.798Z,6.20
2023-05-05T04:05:31.515Z,5.60
2023-05-05T04:08:10.594Z,5.80
2023-05-05T04:10:47.291Z,6.60
2023-05-05T04:13:24.207Z,7.20
2023-05-05T04:16:01.599Z,6.30
2023-05-05T04:18:39.167Z,7.80
2023-05-05T04:21:15.853Z,7.80
2023-05-05T04:23:53.245Z,8.70
2023-05-05T04:26:24.045Z,7.90
2023-05-05T04:29:03.739Z,7.80
2023-05-05T04:31:41.683Z,9.60
2023-05-05T04:34:19.136Z,9.30
2023-05-05T04:36:56.076Z,8.80
2023-05-05T04:39:26.691Z,8.40
2023-05-05T04:42:04.642Z,7.40
2023-05-05T04:44:41.623Z,7.90
2023-05-05T04:47:18.803Z,8.20
2023-05-05T04:49:57.985Z,7.00
2023-05-05T04:52:34.383Z,7.30
2023-05-05T04:55:06.703Z,7.60
2023-05-05T04:57:42.581Z,6.50
2023-05-05T05:00:20.588Z,5.20
2023-05-05T05:02:59.100Z,6.90
2023-05-05T05:05:37.380Z,7.80
2023-05-05T05:08:17.345Z,6.90
2023-05-05T05:10:54.259Z,6.40
2023-05-05T05:13:30.844Z,6.10
2023-05-05T05:16:09.042Z,4.10
2023-05-05T05:18:45.862Z,7.30
2023-05-05T05:21:24.046Z,5.80
2023-05-05T05:24:01.541Z,6.60
2023-05-05T05:26:38.723Z,3.60
2023-05-05T05:29:15.482Z,4.90
2023-05-05T05:31:47.569Z,4.30
2023-05-05T05:34:23.370Z,4.50
2023-05-05T05:37:01.019Z,5.00
2023-05-05T05:39:37.993Z,5.20
2023-05-05T05:42:15.151Z,5.30
2023-05-05T05:44:51.995Z,7.20
2023-05-05T05:47:28.838Z,4.30
2023-05-05T05:50:07.388Z,6.00
2023-05-05T05:52:44.872Z,4.80
2023-05-05T05:55:22.083Z,5.60
2023-05-05T05:57:58.800Z,5.00
2023-05-05T06:00:31.573Z,4.90
2023-05-05T06:03:05.310Z,5.30
2023-05-05T06:05:43.101Z,6.00
2023-05-05T06:08:21.678Z,5.60
2023-05-05T06:11:01.336Z,5.70
2023-05-05T06:13:39.424Z,6.00
2023-05-05T06:16:17.947Z,4.30
2023-05-05T06:18:55.969Z,4.30
2023-05-05T06:21:33.116Z,2.60
2023-05-05T06:24:12.334Z,3.80
2023-05-05T06:26:49.866Z,4.80
2023-05-05T06:29:28.430Z,4.70
2023-05-05T06:32:08.695Z,3.20
2023-05-05T06:34:47.605Z,4.90
2023-05-05T06:37:25.485Z,2.20
2023-05-05T06:40:03.213Z,4.30
2023-05-05T06:42:41.712Z,3.60
2023-05-05T06:45:19.387Z,4.10
2023-05-05T06:47:56.941Z,3.70
2023-05-05T06:50:27.273Z,3.00
2023-05-05T06:53:05.604Z,4.40
2023-05-05T06:55:46.937Z,4.40
2023-05-05T06:58:25.663Z,4.50
2023-05-05T07:01:04.886Z,4.30
2023-05-05T07:03:44.461Z,3.60
2023-05-05T07:06:23.327Z,3.50
2023-05-05T07:09:02.290Z,3.70
2023-05-05T07:11:40.809Z,5.60
2023-05-05T07:14:20.097Z,4.60
2023-05-05T07:17:00.424Z,3.80
2023-05-05T07:19:39.065Z,3.20
2023-05-05T07:22:17.320Z,5.90
2023-05-05T07:24:55.358Z,2.90
2023-05-05T07:27:38.650Z,4.10
2023-05-05T07:30:19.047Z,3.60
2023-05-05T07:33:00.973Z,3.00
2023-05-05T07:35:39.096Z,4.50
2023-05-05T07:38:17.523Z,4.20
2023-05-05T07:40:56.288Z,3.20
2023-05-05T07:43:42.328Z,5.10
2023-05-05T07:46:23.428Z,4.70
2023-05-05T07:49:01.389Z,4.10
2023-05-05T07:51:39.584Z,4.30
2023-05-05T07:54:18.803Z,4.00
2023-05-05T07:56:57.863Z,4.80
2023-05-05T07:59:36.644Z,4.90
2023-05-05T08:02:15.617Z,4.50
2023-05-05T08:04:53.213Z,4.60
2023-05-05T08:07:32.200Z,4.40
2023-05-05T08:10:13.931Z,5.10
2023-05-05T08:12:52.221Z,2.90
2023-05-05T08:15:30.481Z,3.80
2023-05-05T08:18:09.918Z,3.30
2023-05-05T08:20:49.669Z,3.00
2023-05-05T08:23:28.021Z,6.10
2023-05-05T08:26:00.256Z,4.70
2023-05-05T08:28:34.308Z,4.10
2023-05-05T08:31:09.877Z,4.30
2023-05-05T08:33:48.890Z,3.20
2023-05-05T08:36:27.710Z,4.30
2023-05-05T08:39:07.679Z,4.30
2023-05-05T08:41:47.162Z,4.20
2023-05-05T08:44:27.469Z,3.80
2023-05-05T08:47:07.621Z,4.00
2023-05-05T08:49:50.171Z,3.10
2023-05-05T08:52:34.883Z,4.00
2023-05-05T08:55:41.549Z,3.40
2023-05-05T08:58:23.285Z,2.40
2023-05-05T09:01:02.287Z,3.00
2023-05-05T09:03:43.544Z,3.20
2023-05-05T09:06:28.706Z,2.40
2023-05-05T09:09:07.799Z,3.50
2023-05-05T09:11:50.892Z,3.60
2023-05-05T09:14:30.547Z,3.90
2023-05-05T09:17:24.570Z,4.10
2023-05-05T09:20:17.856Z,3.30
2023-05-05T09:22:58.580Z,2.80
2023-05-05T09:25:38.768Z,3.60
2023-05-05T09:28:21.567Z,2.00
2023-05-05T09:31:12.531Z,2.60
2023-05-05T09:33:50.782Z,2.40
2023-05-05T09:36:50.892Z,2.80
2023-05-05T09:39:29.324Z,3.00
2023-05-05T09:42:09.799Z,3.10
2023-05-05T09:44:49.090Z,3.30
2023-05-05T09:47:38.290Z,2.40
2023-05-05T09:50:19.376Z,3.40
2023-05-05T09:53:04.754Z,3.10
2023-05-05T09:55:43.412Z,3.40
2023-05-05T09:58:31.980Z,3.60
2023-05-05T10:01:25.767Z,2.30
2023-05-05T10:04:04.634Z,3.20
2023-05-05T10:06:50.797Z,3.10
2023-05-05T10:09:29.899Z,2.80
2023-05-05T10:12:08.286Z,3.50
2023-05-05T10:14:47.894Z,2.20
2023-05-05T10:17:31.074Z,3.40
2023-05-05T10:20:13.772Z,2.90
2023-05-05T10:22:58.016Z,2.10
2023-05-05T10:25:52.450Z,3.10
2023-05-05T10:28:34.706Z,3.20
2023-05-05T10:31:26.329Z,3.40
2023-05-05T10:34:23.280Z,2.90
2023-05-05T10:37:06.771Z,3.20
2023-05-05T10:39:47.716Z,3.80
2023-05-05T10:42:28.371Z,3.00
2023-05-05T10:45:10.913Z,2.90
2023-05-05T10:47:51.632Z,2.80
2023-05-05T10:50:44.310Z,2.50
2023-05-05T10:53:38.948Z,2.00
2023-05-05T10:56:35.258Z,3.30
2023-05-05T10:59:46.955Z,2.30
2023-05-05T11:02:35.055Z,2.60
2023-05-05T11:05:24.709Z,2.40
2023-05-05T11:07:54.907Z,3.60
2023-05-05T11:10:47.948Z,2.70
2023-05-05T11:13:27.071Z,2.80
2023-05-05T11:16:05.984Z,3.60
2023-05-05T11:18:40.134Z,2.90
2023-05-05T11:21:17.773Z,3.10
2023-05-05T11:23:55.030Z,2.70
2023-05-05T11:26:52.232Z,3.50
2023-05-05T11:29:50.874Z,2.80
2023-05-05T11:32:43.148Z,1.90
2023-05-05T11:35:16.008Z,2.30
2023-05-05T11:38:05.476Z,3.10
2023-05-05T11:40:41.138Z,3.10
2023-05-05T11:43:23.442Z,2.30
2023-05-05T11:46:19.148Z,3.20
2023-05-05T11:48:59.650Z,2.90
2023-05-05T11:51:39.423Z,3.30
2023-05-05T11:54:24.520Z,2.90
2023-05-05T11:57:10.968Z,1.60
2023-05-05T12:00:09.529Z,3.00
2023-05-05T12:02:49.078Z,2.60
2023-05-05T12:05:27.835Z,1.80
2023-05-05T12:08:01.368Z,3.20
2023-05-05T12:10:36.218Z,2.40
2023-05-05T12:13:20.368Z,3.10
2023-05-05T12:15:57.067Z,1.60
2023-05-05T12:18:35.708Z,1.90
2023-05-05T12:21:23.654Z,2.80
2023-05-05T12:23:57.021Z,3.10
2023-05-05T12:26:36.213Z,3.10
2023-05-05T12:29:07.481Z,2.90
2023-05-05T12:31:47.088Z,3.00
2023-05-05T12:34:26.766Z,2.60
2023-05-05T12:37:06.277Z,3.30
2023-05-05T12:39:46.212Z,2.70
2023-05-05T12:42:17.534Z,2.20
2023-05-05T12:44:57.931Z,3.50
2023-05-05T12:47:45.849Z,3.10
2023-05-05T12:50:36.601Z,2.80
2023-05-05T12:53:28.036Z,2.90
2023-05-05T12:55:58.972Z,2.50
2023-05-05T12:58:52.646Z,2.50
2023-05-05T13:01:31.725Z,3.30
2023-05-05T13:04:18.617Z,2.40
2023-05-05T13:07:17.063Z,2.80
2023-05-05T13:10:11.162Z,3.40
2023-05-05T13:15:19.151Z,2.80
2023-05-05T13:18:08.434Z,2.80
2023-05-05T13:20:39.132Z,3.30
2023-05-05T13:23:17.821Z,2.50
2023-05-05T13:25:57.606Z,2.40
2023-05-05T13:28:35.907Z,1.80
2023-05-05T13:31:15.449Z,2.20
2023-05-05T13:33:54.859Z,2.70
2023-05-05T13:36:35.221Z,3.00
2023-05-05T13:39:14.120Z,2.20
2023-05-05T13:41:53.238Z,2.40
2023-05-05T13:44:32.098Z,2.40
2023-05-05T13:47:15.044Z,2.60
2023-05-05T13:49:54.249Z,2.70
2023-05-05T13:52:33.611Z,3.00
2023-05-05T13:55:15.004Z,3.10
2023-05-05T13:57:54.469Z,2.60
2023-05-05T14:00:35.134Z,3.10
2023-05-05T14:03:14.800Z,3.20
2023-05-05T14:05:54.338Z,2.90
2023-05-05T14:08:25.345Z,3.10
2023-05-05T14:10:56.315Z,2.20
2023-05-05T14:13:35.398Z,2.60
2023-05-05T14:16:14.235Z,2.50
2023-05-05T14:18:47.851Z,2.80
2023-05-05T14:21:20.254Z,2.60
2023-05-05T14:23:58.343Z,2.80
2023-05-05T14:26:37.241Z,2.40
2023-05-05T14:29:09.011Z,2.50
2023-05-05T14:31:47.614Z,1.70
2023-05-05T14:34:26.385Z,2.20
2023-05-05T14:37:04.481Z,2.50
2023-05-05T14:39:43.397Z,1.90
2023-05-05T14:42:21.992Z,2.30
2023-05-05T14:45:00.596Z,3.00
2023-05-05T14:47:40.804Z,2.60
2023-05-05T14:50:19.512Z,2.40
2023-05-05T14:52:57.852Z,1.80
2023-05-05T14:55:37.076Z,2.10
2023-05-05T14:58:16.000Z,2.00
2023-05-05T15:00:55.292Z,2.00
2023-05-05T15:03:34.454Z,2.60
2023-05-05T15:06:12.484Z,1.40
2023-05-05T15:08:42.600Z,2.50
2023-05-05T15:11:22.471Z,2.30
2023-05-05T15:14:01.154Z,2.90
2023-05-05T15:16:40.847Z,2.70
2023-05-05T15:19:21.482Z,2.60
2023-05-05T15:22:00.747Z,2.70
2023-05-05T15:24:40.089Z,2.20
2023-05-05T15:27:18.623Z,1.80
2023-05-05T15:29:57.476Z,3.00
2023-05-05T15:32:36.698Z,2.10
2023-05-05T15:35:15.339Z,1.90
2023-05-05T15:37:55.398Z,1.40
2023-05-05T15:40:33.900Z,1.60
2023-05-05T15:43:14.057Z,2.30
2023-05-05T15:45:50.267Z,2.80
2023-05-05T15:48:30.030Z,2.10
2023-05-05T15:51:09.774Z,3.50
2023-05-05T15:53:47.961Z,1.40
2023-05-05T15:56:28.659Z,2.40
2023-05-05T16:01:43.153Z,1.50
2023-05-05T16:04:21.692Z,2.20
2023-05-05T16:07:00.385Z,2.70
2023-05-05T16:09:38.726Z,2.60
2023-05-05T16:12:16.684Z,1.80
2023-05-05T16:14:54.556Z,1.50
2023-05-05T16:17:25.003Z,2.00
2023-05-05T16:20:04.783Z,2.20
2023-05-05T16:22:43.269Z,2.30
2023-05-05T16:25:22.733Z,2.80
2023-05-05T16:28:03.834Z,1.90
2023-05-05T16:30:43.670Z,2.30
2023-05-05T16:33:27.537Z,2.70
2023-05-05T16:36:04.327Z,2.50
2023-05-05T16:38:45.811Z,2.40
2023-05-05T16:41:34.699Z,2.70
2023-05-05T16:44:09.469Z,2.10
2023-05-05T16:46:54.513Z,2.30
2023-05-05T16:49:29.011Z,2.00
2023-05-05T16:52:05.693Z,2.00
2023-05-05T16:54:44.524Z,2.40
2023-05-05T16:57:26.696Z,2.30
2023-05-05T17:00:05.249Z,2.40
2023-05-05T17:02:44.322Z,2.60
2023-05-05T17:05:23.005Z,2.10
2023-05-05T17:07:55.500Z,2.20
2023-05-05T17:10:33.858Z,2.50
2023-05-05T17:13:15.717Z,2.20
2023-05-05T17:15:54.585Z,2.70
2023-05-05T17:18:26.520Z,2.60
2023-05-05T17:21:07.108Z,3.00
2023-05-05T17:23:46.306Z,2.80
2023-05-05T17:26:24.865Z,2.60
2023-05-05T17:28:55.023Z,2.40
2023-05-05T17:31:26.367Z,2.30
2023-05-05T17:34:05.285Z,2.40
2023-05-05T17:36:44.549Z,2.30
2023-05-05T17:39:23.524Z,2.50
2023-05-05T17:41:54.673Z,2.50
2023-05-05T17:44:33.336Z,2.80
2023-05-05T17:47:13.824Z,2.50
2023-05-05T17:49:54.243Z,2.60
2023-05-05T17:52:33.730Z,1.90
2023-05-05T17:55:14.552Z,2.70
2023-05-05T17:57:53.202Z,2.80
2023-05-05T18:00:31.668Z,2.70
2023-05-05T18:03:12.346Z,2.90
2023-05-05T18:05:52.195Z,2.80
2023-05-05T18:08:22.802Z,2.60
2023-05-05T18:11:01.235Z,3.00
2023-05-05T18:13:32.135Z,3.00
2023-05-05T18:16:07.548Z,1.90
2023-05-05T18:18:45.546Z,2.70
2023-05-05T18:21:24.504Z,3.00
2023-05-05T18:24:15.584Z,3.00
2023-05-05T18:27:01.183Z,3.00
2023-05-05T18:29:40.189Z,3.20
2023-05-05T18:32:13.057Z,2.70
2023-05-05T18:34:47.615Z,3.00
2023-05-05T18:37:26.076Z,3.30
2023-05-05T18:40:05.135Z,3.50
2023-05-05T18:42:44.055Z,3.50
2023-05-05T18:45:23.638Z,4.00
2023-05-05T18:48:01.793Z,4.10
2023-05-05T18:50:41.121Z,3.60
2023-05-05T18:53:21.229Z,3.30
2023-05-05T18:55:59.546Z,4.00
2023-05-05T18:58:38.485Z,4.10
2023-05-05T19:01:17.306Z,3.80
2023-05-05T19:03:56.857Z,3.10
2023-05-05T19:06:35.510Z,4.00
2023-05-05T19:09:14.990Z,4.40
2023-05-05T19:11:53.489Z,4.30
2023-05-05T19:14:32.262Z,3.80
2023-05-05T19:17:11.781Z,3.30
2023-05-05T19:19:49.754Z,4.30
2023-05-05T19:22:28.148Z,4.00
2023-05-05T19:25:06.652Z,3.10
2023-05-05T19:27:46.086Z,3.60
2023-05-05T19:30:24.342Z,4.40
2023-05-05T19:33:02.711Z,3.40
2023-05-05T19:35:37.792Z,3.90
2023-05-05T19:38:12.613Z,4.50
2023-05-05T19:40:46.956Z,2.30
2023-05-05T19:43:25.052Z,4.80
2023-05-05T19:46:02.690Z,4.20
2023-05-05T19:48:41.112Z,3.20
2023-05-05T19:51:20.254Z,3.90
2023-05-05T19:53:59.894Z,4.00
2023-05-05T19:56:39.253Z,3.90
2023-05-05T19:59:18.107Z,4.20
2023-05-05T20:01:56.327Z,4.10
2023-05-05T20:04:34.374Z,2.90
2023-05-05T20:07:13.192Z,4.40
2023-05-05T20:09:51.566Z,3.80
2023-05-05T20:12:29.286Z,3.70
2023-05-05T20:15:07.930Z,4.30
2023-05-05T20:17:46.986Z,4.20
2023-05-05T20:20:25.729Z,3.60
2023-05-05T20:23:03.711Z,3.90
2023-05-05T20:25:35.552Z,4.40
2023-05-05T20:28:11.245Z,4.70
2023-05-05T20:30:47.124Z,4.50
2023-05-05T20:33:26.190Z,4.30
2023-05-05T20:36:04.600Z,5.40
2023-05-05T20:38:42.484Z,4.30
2023-05-05T20:41:20.951Z,5.00
2023-05-05T20:43:59.202Z,4.50
2023-05-05T20:46:34.629Z,4.90
2023-05-05T20:49:13.655Z,4.80
2023-05-05T20:51:52.200Z,4.70
2023-05-05T20:54:39.892Z,4.90
2023-05-05T20:57:17.924Z,5.20
2023-05-05T20:59:57.023Z,6.00
2023-05-05T21:02:34.667Z,5.30
2023-05-05T21:05:14.265Z,4.70
2023-05-05T21:07:52.142Z,5.10
2023-05-05T21:10:22.723Z,5.60
2023-05-05T21:12:53.454Z,4.70
2023-05-05T21:15:32.657Z,6.10
2023-05-05T21:18:12.442Z,5.40
2023-05-05T21:20:50.704Z,4.80
2023-05-05T21:23:28.586Z,5.20
2023-05-05T21:26:07.361Z,4.90
2023-05-05T21:28:46.616Z,5.20
2023-05-05T21:31:24.430Z,4.90
2023-05-05T21:33:54.578Z,5.50
2023-05-05T21:36:34.086Z,4.70
2023-05-05T21:39:13.841Z,3.10
2023-05-05T21:41:51.591Z,4.30
2023-05-05T21:44:29.510Z,5.30
2023-05-05T21:47:07.654Z,4.00
2023-05-05T21:49:44.973Z,5.10
2023-05-05T21:52:14.995Z,5.00
2023-05-05T21:54:52.874Z,4.60
2023-05-05T21:57:31.441Z,4.70
2023-05-05T22:00:10.305Z,5.80
2023-05-05T22:02:48.814Z,4.50
2023-05-05T22:05:26.658Z,4.70
2023-05-05T22:08:05.212Z,4.90
2023-05-05T22:10:43.062Z,5.00
2023-05-05T22:13:21.459Z,3.90
2023-05-05T22:15:59.117Z,4.60
2023-05-05T22:18:37.744Z,5.80
2023-05-05T22:21:15.772Z,7.20
2023-05-05T22:23:54.425Z,5.20
2023-05-05T22:26:32.891Z,5.30
2023-05-05T22:29:12.001Z,5.20
2023-05-05T22:31:47.385Z,5.80
2023-05-05T22:34:26.273Z,5.30
2023-05-05T22:37:05.159Z,5.30
2023-05-05T22:39:43.920Z,5.80
2023-05-05T22:42:23.896Z,4.40
2023-05-05T22:45:01.944Z,3.20
2023-05-05T22:47:33.538Z,4.50
2023-05-05T22:50:10.407Z,4.90
2023-05-05T22:52:48.895Z,4.90
2023-05-05T22:55:28.836Z,4.10
2023-05-05T22:58:07.437Z,5.30
2023-05-05T23:00:45.360Z,4.60
2023-05-05T23:03:24.269Z,4.90
2023-05-05T23:06:02.687Z,4.70
2023-05-05T23:08:42.032Z,4.50
2023-05-05T23:11:20.848Z,4.80
2023-05-05T23:13:58.984Z,5.50
2023-05-05T23:16:37.099Z,4.20
2023-05-05T23:19:16.149Z,4.60
2023-05-05T23:21:54.661Z,4.40
2023-05-05T23:24:25.377Z,5.60
2023-05-05T23:27:05.430Z,5.40
2023-05-05T23:29:44.727Z,5.20
2023-05-05T23:32:21.082Z,3.40
2023-05-05T23:34:52.242Z,3.80
2023-05-05T23:37:31.278Z,5.70
2023-05-05T23:40:11.129Z,6.50
2023-05-05T23:42:49.852Z,5.00
2023-05-05T23:45:30.300Z,3.80
2023-05-05T23:48:10.172Z,5.00
2023-05-05T23:50:48.107Z,4.60
2023-05-05T23:53:26.057Z,6.00
2023-05-05T23:56:04.962Z,4.60
2023-05-05T23:58:43.737Z,4.60
